createdAt,value
2018-03-21T00:00:50.494Z,2.38
2018-03-21T00:06:41.093Z,2.51
2018-03-21T00:12:31.738Z,2.48
2018-03-21T00:18:22.331Z,2.38
2018-03-21T00:24:12.937Z,2.31
2018-03-21T00:30:03.485Z,2.34
2018-03-21T00:35:54.087Z,2.43
2018-03-21T00:41:44.709Z,3.07
2018-03-21T00:47:35.223Z,3.2
2018-03-21T00:53:25.850Z,3.91
2018-03-21T00:59:16.455Z,4.43
2018-03-21T01:05:07.014Z,5.1
2018-03-21T01:10:57.571Z,4.66
2018-03-21T01:16:48.165Z,4.26
2018-03-21T01:22:38.824Z,4.95
2018-03-21T01:28:29.381Z,5.99
2018-03-21T01:34:20.040Z,5.49
2018-03-21T01:40:10.605Z,6.64
2018-03-21T01:46:01.218Z,6
2018-03-21T01:51:51.817Z,6.85
2018-03-21T01:57:42.358Z,6.95
2018-03-21T02:03:32.925Z,6.66
2018-03-21T02:09:23.544Z,7.16
2018-03-21T02:15:14.117Z,4.49
2018-03-21T02:21:04.720Z,7.64
2018-03-21T02:26:55.371Z,7.21
2018-03-21T02:32:45.886Z,6.95
2018-03-21T02:38:36.434Z,6.85
2018-03-21T02:44:27.118Z,7.52
2018-03-21T02:50:17.695Z,7.6
2018-03-21T02:56:08.287Z,8.31
2018-03-21T03:01:58.857Z,8.81
2018-03-21T03:07:49.431Z,9.52
2018-03-21T03:13:40.019Z,8.27
2018-03-21T03:19:30.573Z,8.05
2018-03-21T03:25:21.220Z,9.62
2018-03-21T03:31:11.752Z,9.09
2018-03-21T03:37:02.382Z,10.34
2018-03-21T03:42:52.917Z,10.18
2018-03-21T03:48:43.521Z,8.97
2018-03-21T03:54:34.086Z,10.02
2018-03-21T04:00:24.697Z,10.98
2018-03-21T04:06:15.290Z,9.63
2018-03-21T04:12:05.849Z,11.03
2018-03-21T04:17:56.503Z,10.94
2018-03-21T04:23:47.055Z,10.47
2018-03-21T04:29:37.622Z,10.71
2018-03-21T04:35:28.209Z,8.9
2018-03-21T04:41:18.843Z,9.59
2018-03-21T04:47:09.426Z,8.25
2018-03-21T04:53:00.023Z,8.26
2018-03-21T04:58:50.596Z,7.78
2018-03-21T05:04:41.192Z,8.18
2018-03-21T05:10:31.839Z,6.85
2018-03-21T05:16:22.356Z,8.01
2018-03-21T05:22:12.985Z,7.85
2018-03-21T05:28:03.519Z,6.57
2018-03-21T05:33:54.152Z,8.11
2018-03-21T05:39:44.763Z,5.72
2018-03-21T05:45:35.314Z,7
2018-03-21T05:51:25.825Z,7.44
2018-03-21T05:57:16.436Z,7
2018-03-21T06:03:07.033Z,6.45
2018-03-21T06:08:57.653Z,8.25
2018-03-21T06:14:48.208Z,9.25
2018-03-21T06:20:38.803Z,9.84
2018-03-21T06:26:29.405Z,9.71
2018-03-21T06:32:19.956Z,9.18
2018-03-21T06:38:10.516Z,10.81
2018-03-21T06:44:01.123Z,10.84
2018-03-21T06:49:51.720Z,9.34
2018-03-21T06:55:42.323Z,11.2
2018-03-21T07:01:32.920Z,6.24
2018-03-21T07:07:23.578Z,9.6
2018-03-21T07:13:14.093Z,8.14
2018-03-21T07:19:04.664Z,8.53
2018-03-21T07:24:55.236Z,9.34
2018-03-21T07:30:45.803Z,9.71
2018-03-21T07:36:36.384Z,9.65
2018-03-21T07:42:26.962Z,7.83
2018-03-21T07:48:17.559Z,8.36
2018-03-21T07:54:08.213Z,9.03
2018-03-21T07:59:58.783Z,9.96
2018-03-21T08:05:49.328Z,7.5
2018-03-21T08:11:39.913Z,7.63
2018-03-21T08:17:30.489Z,8.01
2018-03-21T08:23:21.088Z,4.94
2018-03-21T08:29:11.748Z,5.82
2018-03-21T08:35:02.283Z,5.12
2018-03-21T08:40:52.858Z,6.3
2018-03-21T08:46:43.520Z,6.88
2018-03-21T08:52:34.058Z,5.45
2018-03-21T08:58:24.671Z,6.4
2018-03-21T09:04:15.270Z,6.59
2018-03-21T09:10:05.869Z,6.58
2018-03-21T09:15:56.411Z,5.98
2018-03-21T09:21:47.020Z,5.75
2018-03-21T09:27:37.670Z,7.03
2018-03-21T09:33:28.229Z,6.55
2018-03-21T09:39:18.819Z,7.71
2018-03-21T09:45:09.458Z,8.04
2018-03-21T09:51:00.083Z,7.96
2018-03-21T09:56:50.733Z,6.16
2018-03-21T10:02:41.273Z,7.8
2018-03-21T10:08:31.900Z,6.67
2018-03-21T10:14:22.510Z,7.22
2018-03-21T10:20:13.118Z,6.34
2018-03-21T10:26:03.739Z,6.03
2018-03-21T10:31:54.358Z,6.63
2018-03-21T10:37:44.975Z,7.04
2018-03-21T10:43:35.537Z,6.63
2018-03-21T10:49:26.130Z,8.31
2018-03-21T10:55:16.736Z,8.2
2018-03-21T11:01:07.331Z,6.81
2018-03-21T11:06:58.001Z,5.88
2018-03-21T11:12:48.565Z,8.4
2018-03-21T11:18:39.260Z,9.91
2018-03-21T11:24:29.769Z,7.93
2018-03-21T11:30:20.576Z,7.54
2018-03-21T11:36:11.022Z,6.98
2018-03-21T11:42:01.578Z,8.98
2018-03-21T11:47:52.214Z,6.57
2018-03-21T11:53:42.817Z,7.84
2018-03-21T11:59:33.363Z,7.93
2018-03-21T12:05:23.983Z,6.95
2018-03-21T12:11:14.592Z,7.61
2018-03-21T12:17:05.168Z,8.89
2018-03-21T12:22:55.757Z,8.61
2018-03-21T12:28:46.397Z,8.59
2018-03-21T12:34:36.987Z,9.28
2018-03-21T12:40:27.567Z,7.44
2018-03-21T12:46:18.164Z,7.89
2018-03-21T12:52:08.791Z,7.19
2018-03-21T12:57:59.364Z,7.22
2018-03-21T13:03:49.995Z,8.77
2018-03-21T13:09:40.586Z,6.77
2018-03-21T13:15:31.249Z,9.89
2018-03-21T13:21:21.819Z,11.08
2018-03-21T13:27:12.400Z,10.06
2018-03-21T13:33:03.015Z,8.64
2018-03-21T13:38:53.592Z,7.18
2018-03-21T13:44:44.197Z,7.44
2018-03-21T13:50:34.900Z,8.55
2018-03-21T13:56:25.438Z,9.06
2018-03-21T14:02:16.086Z,8.44
2018-03-21T14:08:06.647Z,7.95
2018-03-21T14:13:57.255Z,8.73
2018-03-21T14:19:47.841Z,7.82
2018-03-21T14:25:38.493Z,8.91
2018-03-21T14:31:29.069Z,7.81
2018-03-21T14:37:19.684Z,9.19
2018-03-21T14:43:10.289Z,8.89
2018-03-21T14:49:00.881Z,9.74
2018-03-21T14:54:51.524Z,8.61
2018-03-21T15:00:42.126Z,7.75
2018-03-21T15:06:32.715Z,9.02
2018-03-21T15:12:23.323Z,8.21
2018-03-21T15:18:13.959Z,8.25
2018-03-21T15:24:04.608Z,8.84
2018-03-21T15:29:55.227Z,7.21
2018-03-21T15:35:45.775Z,7.63
2018-03-21T15:41:36.364Z,7.65
2018-03-21T15:47:26.951Z,10.02
2018-03-21T15:53:17.593Z,9.14
2018-03-21T15:59:08.181Z,13.44
2018-03-21T16:04:58.771Z,8.94
2018-03-21T16:10:49.435Z,8.1
2018-03-21T16:16:39.981Z,9.25
2018-03-21T16:22:30.614Z,10.35
2018-03-21T16:28:21.223Z,7.21
2018-03-21T16:34:11.795Z,8.58
2018-03-21T16:40:02.489Z,6.97
2018-03-21T16:45:52.992Z,10.16
2018-03-21T16:51:43.576Z,7.16
2018-03-21T16:57:34.230Z,7.69
2018-03-21T17:03:24.785Z,9.14
2018-03-21T17:09:15.397Z,8.8
2018-03-21T17:15:05.985Z,9.35
2018-03-21T17:20:56.575Z,6.94
2018-03-21T17:26:47.207Z,5.88
2018-03-21T17:32:37.738Z,7.2
2018-03-21T17:38:28.362Z,9.88
2018-03-21T17:44:18.941Z,10.32
2018-03-21T17:50:09.545Z,10.32
2018-03-21T17:56:00.229Z,7.69
2018-03-21T18:01:50.725Z,9.47
2018-03-21T18:07:41.350Z,9.84
2018-03-21T18:13:31.935Z,9.07
2018-03-21T18:19:22.510Z,9.9
2018-03-21T18:25:13.088Z,7.93
2018-03-21T18:31:03.696Z,9.54
2018-03-21T18:36:54.278Z,7.91
2018-03-21T18:42:44.820Z,9.2
2018-03-21T18:48:35.468Z,8.99
2018-03-21T18:54:26.077Z,9.8
2018-03-21T19:00:16.607Z,10.31
2018-03-21T19:06:07.247Z,9
2018-03-21T19:11:57.768Z,9.89
2018-03-21T19:17:48.446Z,9.52
2018-03-21T19:23:39.087Z,8.51
2018-03-21T19:29:29.723Z,8.49
2018-03-21T19:35:20.343Z,9.29
2018-03-21T19:41:10.893Z,8.73
2018-03-21T19:47:01.513Z,8.65
2018-03-21T19:52:52.143Z,7.06
2018-03-21T19:58:42.686Z,9.41
2018-03-21T20:04:33.252Z,9.2
2018-03-21T20:10:23.831Z,8.1
2018-03-21T20:16:14.424Z,7.97
2018-03-21T20:22:05.037Z,9.32
2018-03-21T20:27:55.592Z,8.91
2018-03-21T20:33:46.249Z,9.89
2018-03-21T20:39:36.762Z,9.9
2018-03-21T20:45:27.364Z,8.39
2018-03-21T20:51:17.952Z,9.56
2018-03-21T20:57:08.614Z,9.51
2018-03-21T21:02:59.144Z,10.04
2018-03-21T21:08:49.711Z,10.68
2018-03-21T21:14:40.310Z,10.32
2018-03-21T21:20:30.903Z,9.59
2018-03-21T21:26:21.552Z,9.37
2018-03-21T21:32:12.049Z,10.35
2018-03-21T21:38:02.679Z,10.49
2018-03-21T21:43:53.228Z,9.74
2018-03-21T21:49:43.817Z,10.32
2018-03-21T21:55:34.402Z,10.14
2018-03-21T22:01:25.000Z,9.45
2018-03-21T22:07:15.599Z,8.46
2018-03-21T22:13:06.128Z,10.43
2018-03-21T22:18:56.758Z,10.75
2018-03-21T22:24:47.322Z,11.77
2018-03-21T22:30:37.914Z,8.93
2018-03-21T22:36:28.507Z,9.68
2018-03-21T22:42:19.074Z,9.97
2018-03-21T22:48:09.652Z,10.36
2018-03-21T22:54:00.227Z,11.47
2018-03-21T22:59:50.833Z,10.96
2018-03-21T23:05:41.422Z,10.39
2018-03-21T23:11:32.015Z,10.5
2018-03-21T23:17:22.606Z,10.75
2018-03-21T23:23:13.196Z,10.81
2018-03-21T23:29:03.784Z,9.57
2018-03-21T23:34:54.438Z,8.49
2018-03-21T23:40:44.940Z,11.34
2018-03-21T23:46:35.534Z,9.39
2018-03-21T23:52:26.222Z,9.38
2018-03-21T23:58:16.671Z,11.01
